Time;durP1;ratioP1;P1;durP2;ratioP2;P2;SDS_P1;SDS_P2;PMS_P1;PMS_P2;Temp;Humidity;BMP_temperature;BMP_pressure;BME280_temperature;BME280_humidity;BME280_pressure;Samples;Min_cycle;Max_cycle;Signal;HPM_P1;HPM_P2
2021/09/11 00:01:14;;;;;;;16.70;9.75;;;;;;;11.41;71.46;99886.81;1732885;80;21084;-54
2021/09/11 00:03:40;;;;;;;13.35;8.80;;;;;;;11.41;71.46;99888.16;1749875;79;21095;-54
2021/09/11 00:06:07;;;;;;;15.15;9.58;;;;;;;11.40;71.34;99888.27;1749502;79;21027;-54
2021/09/11 00:08:33;;;;;;;13.78;10.48;;;;;;;11.40;71.26;99892.31;1750828;79;21624;-54
2021/09/11 00:11:01;;;;;;;15.60;9.70;;;;;;;11.38;71.26;99893.72;1767167;79;21536;-54
2021/09/11 00:13:27;;;;;;;18.80;10.65;;;;;;;11.37;71.20;99896.89;1758413;79;21608;-54
2021/09/11 00:15:55;;;;;;;13.95;9.13;;;;;;;11.33;71.08;99891.23;1760533;79;21443;-53
2021/09/11 00:18:23;;;;;;;12.25;10.00;;;;;;;11.30;71.04;99890.53;1744725;80;21423;-53
2021/09/11 00:20:50;;;;;;;14.10;9.75;;;;;;;11.28;71.08;99897.34;1739334;80;21116;-54
2021/09/11 00:23:16;;;;;;;17.32;9.58;;;;;;;11.26;71.07;99887.58;1764092;78;21073;-53
2021/09/11 00:25:42;;;;;;;15.00;10.50;;;;;;;11.24;71.08;99888.99;1765982;78;21116;-53
2021/09/11 00:28:09;;;;;;;17.48;11.70;;;;;;;11.25;71.05;99888.05;1772488;78;21492;-54
2021/09/11 00:30:35;;;;;;;15.28;11.20;;;;;;;11.24;71.12;99889.46;1770523;78;21061;-53
2021/09/11 00:33:02;;;;;;;16.00;12.00;;;;;;;11.23;71.19;99890.41;1777096;78;21068;-53
2021/09/11 00:35:28;;;;;;;18.95;12.78;;;;;;;11.22;71.23;99885.52;1772502;78;21137;-53
2021/09/11 00:37:54;;;;;;;21.40;14.58;;;;;;;11.22;71.29;99892.27;1779633;78;21686;-53
2021/09/11 00:40:21;;;;;;;19.00;12.93;;;;;;;11.22;71.35;99886.00;1776711;78;21197;-53
2021/09/11 00:42:47;;;;;;;20.05;13.35;;;;;;;11.21;71.38;99887.81;1776645;78;21274;-54
2021/09/11 00:45:17;;;;;;;16.75;11.75;;;;;;;11.20;71.43;99892.80;1775465;78;21027;-53
2021/09/11 00:47:44;;;;;;;20.27;12.10;;;;;;;11.17;71.27;99894.28;1766007;78;21068;-53
2021/09/11 00:50:11;;;;;;;14.38;10.32;;;;;;;11.14;71.27;99892.23;1773393;78;21032;-54
2021/09/11 00:52:40;;;;;;;16.57;11.08;;;;;;;11.12;71.37;99890.95;1762377;78;21072;-53
2021/09/11 00:55:10;;;;;;;14.28;10.32;;;;;;;11.10;71.36;99894.19;1783048;78;21126;-53
2021/09/11 00:57:43;;;;;;;16.12;12.13;;;;;;;11.10;71.44;99895.53;1782990;78;20989;-53
2021/09/11 01:00:12;;;;;;;22.98;13.93;;;;;;;11.09;71.50;99899.17;1754347;79;21821;-53
2021/09/11 01:02:38;;;;;;;20.85;13.65;;;;;;;11.09;71.41;99896.95;1761004;79;21352;-53
2021/09/11 01:05:07;;;;;;;27.58;14.83;;;;;;;11.08;71.49;99896.07;1764651;79;21254;-53
2021/09/11 01:07:37;;;;;;;21.07;14.60;;;;;;;11.07;71.37;99892.97;1756663;79;20982;-53
2021/09/11 01:10:05;;;;;;;21.75;14.83;;;;;;;11.04;71.52;99887.75;1755386;79;20992;-53
2021/09/11 01:12:32;;;;;;;22.82;14.80;;;;;;;10.98;71.43;99898.33;1756576;79;21065;-53
2021/09/11 01:15:07;;;;;;;17.67;11.83;;;;;;;10.94;71.44;99897.22;1759504;79;20939;-53
2021/09/11 01:17:36;;;;;;;21.05;13.18;;;;;;;10.92;71.53;99891.02;1756577;79;20978;-53
2021/09/11 01:20:02;;;;;;;19.60;11.60;;;;;;;10.90;71.58;99888.39;1757378;79;21506;-53
2021/09/11 01:22:30;;;;;;;20.12;11.35;;;;;;;10.89;71.72;99887.11;1757705;79;20992;-53
2021/09/11 01:24:59;;;;;;;21.75;11.35;;;;;;;10.89;71.80;99891.16;1757349;79;21151;-53
2021/09/11 01:27:26;;;;;;;13.68;11.28;;;;;;;10.90;71.62;99887.52;1759604;79;21525;-53
2021/09/11 01:30:02;;;;;;;18.42;12.15;;;;;;;10.89;71.63;99878.56;1760912;79;20976;-53
2021/09/11 01:32:30;;;;;;;20.57;14.25;;;;;;;10.87;71.66;99879.61;1754422;79;21912;-53
2021/09/11 01:34:56;;;;;;;17.70;13.95;;;;;;;10.85;71.67;99885.53;1755591;79;21986;-54
2021/09/11 01:37:22;;;;;;;18.80;14.43;;;;;;;10.83;71.67;99884.25;1747222;79;21118;-54
2021/09/11 01:39:49;;;;;;;27.52;16.65;;;;;;;10.80;71.72;99879.50;1751526;79;21067;-54
2021/09/11 01:42:21;;;;;;;20.37;13.60;;;;;;;10.77;71.60;99880.98;1754807;79;21047;-53
2021/09/11 01:44:55;;;;;;;18.57;12.68;;;;;;;10.75;71.61;99880.17;1774668;78;21509;-54
2021/09/11 01:47:21;;;;;;;22.45;13.30;;;;;;;10.73;71.66;99880.23;1784093;78;27498;-54
2021/09/11 01:49:48;;;;;;;19.95;12.73;;;;;;;10.71;71.74;99879.92;1777711;78;21724;-53
2021/09/11 01:52:14;;;;;;;19.25;12.75;;;;;;;10.70;71.72;99880.40;1753368;78;21178;-54
2021/09/11 01:54:41;;;;;;;18.57;12.35;;;;;;;10.71;71.77;99873.20;1774467;78;21061;-54
2021/09/11 01:57:14;;;;;;;20.57;13.35;;;;;;;10.71;71.81;99871.37;1758712;78;21058;-53
2021/09/11 01:59:38;;;;;;;25.52;15.68;;;;;;;10.72;71.83;99877.14;1767147;78;21053;-54
2021/09/11 02:02:05;;;;;;;25.37;14.28;;;;;;;10.72;71.83;99873.60;1737311;80;21143;-54
2021/09/11 02:04:31;;;;;;;23.30;15.75;;;;;;;10.73;71.81;99878.02;1747418;79;21091;-54
2021/09/11 02:07:02;;;;;;;26.77;15.55;;;;;;;10.71;71.79;99871.85;1752306;79;21047;-54
2021/09/11 02:09:29;;;;;;;23.32;15.60;;;;;;;10.70;71.79;99874.14;1753958;79;21755;-54
2021/09/11 02:11:57;;;;;;;21.93;13.77;;;;;;;10.68;71.89;99869.29;1760839;79;21468;-54
2021/09/11 02:17:05;;;;;;;26.93;15.00;;;;;;;10.67;71.76;99864.84;1788869;77;23239;-54
2021/09/11 02:19:33;;;;;;;26.48;13.78;;;;;;;10.59;71.86;99877.32;1774822;79;21523;-54
2021/09/11 02:22:03;;;;;;;30.68;15.83;;;;;;;10.58;71.99;99879.61;1767828;79;22182;-54
2021/09/11 02:24:31;;;;;;;19.92;13.98;;;;;;;10.58;72.05;99874.22;1767894;79;20997;-54
2021/09/11 02:26:57;;;;;;;23.67;15.15;;;;;;;10.59;72.07;99877.32;1766184;79;21084;-54
2021/09/11 02:29:24;;;;;;;29.80;15.78;;;;;;;10.60;72.10;99878.60;1767646;79;21094;-54
2021/09/11 02:31:51;;;;;;;26.42;16.75;;;;;;;10.61;72.18;99880.35;1769105;78;21084;-54
2021/09/11 02:34:19;;;;;;;27.55;17.12;;;;;;;10.63;72.22;99885.17;1763467;78;21438;-54
2021/09/11 02:36:46;;;;;;;33.20;17.10;;;;;;;10.65;72.16;99881.53;1764591;78;22263;-55
2021/09/11 02:39:12;;;;;;;25.68;16.77;;;;;;;10.64;72.13;99872.58;1765566;78;20991;-54
2021/09/11 02:41:38;;;;;;;28.38;17.15;;;;;;;10.63;72.17;99878.44;1767912;78;21361;-54
2021/09/11 02:44:05;;;;;;;24.60;16.77;;;;;;;10.63;72.24;99874.03;1767144;78;21392;-54
2021/09/11 02:46:32;;;;;;;26.15;16.10;;;;;;;10.61;72.12;99879.48;1768157;78;21535;-54
2021/09/11 02:48:59;;;;;;;25.12;14.93;;;;;;;10.57;72.07;99870.66;1767792;78;21717;-54
2021/09/11 02:51:27;;;;;;;22.48;14.10;;;;;;;10.56;72.08;99874.29;1773064;78;20912;-54
2021/09/11 02:53:54;;;;;;;21.33;13.72;;;;;;;10.53;72.14;99870.41;1769346;78;20926;-54
2021/09/11 02:56:20;;;;;;;23.87;14.07;;;;;;;10.53;72.27;99873.58;1735273;80;20986;-54
2021/09/11 02:58:48;;;;;;;23.27;14.63;;;;;;;10.54;72.27;99875.33;1695169;81;21519;-54
2021/09/11 03:01:15;;;;;;;18.52;13.15;;;;;;;10.53;72.36;99869.07;1730290;80;20988;-54
2021/09/11 03:03:42;;;;;;;22.67;15.72;;;;;;;10.53;72.41;99878.96;1731917;80;21039;-54
2021/09/11 03:06:08;;;;;;;24.02;15.20;;;;;;;10.52;72.39;99879.42;1731186;80;21613;-54
2021/09/11 03:08:35;;;;;;;20.68;16.23;;;;;;;10.50;72.33;99875.05;1735773;80;22264;-54
2021/09/11 03:11:03;;;;;;;22.02;15.05;;;;;;;10.49;72.31;99875.99;1729392;80;21528;-54
2021/09/11 03:13:29;;;;;;;23.62;15.63;;;;;;;10.48;72.33;99870.20;1710671;81;21659;-54
2021/09/11 03:15:57;;;;;;;22.67;14.50;;;;;;;10.46;72.32;99870.27;1698178;81;22457;-54
2021/09/11 03:18:25;;;;;;;22.22;13.98;;;;;;;10.43;72.45;99868.20;1761963;78;21096;-54
2021/09/11 03:20:52;;;;;;;21.65;13.85;;;;;;;10.41;72.57;99869.62;1761503;79;21377;-54
2021/09/11 03:23:20;;;;;;;20.45;13.35;;;;;;;10.41;72.53;99870.96;1758840;79;21303;-54
2021/09/11 03:25:48;;;;;;;18.98;12.55;;;;;;;10.40;72.53;99873.25;1765081;79;21457;-54
2021/09/11 03:28:14;;;;;;;19.15;13.38;;;;;;;10.41;72.61;99872.31;1759016;79;21108;-54
2021/09/11 03:30:41;;;;;;;20.17;12.85;;;;;;;10.43;72.70;99875.81;1759555;79;21379;-54
2021/09/11 03:33:07;;;;;;;21.60;13.60;;;;;;;10.43;72.67;99877.16;1760327;79;22328;-54
2021/09/11 03:35:34;;;;;;;18.52;13.88;;;;;;;10.42;72.72;99876.75;1762969;79;22241;-54
2021/09/11 03:38:00;;;;;;;19.23;14.18;;;;;;;10.43;72.77;99883.88;1707633;82;21059;-54
2021/09/11 03:40:28;;;;;;;20.43;14.23;;;;;;;10.42;72.80;99883.48;1757927;79;21179;-54
2021/09/11 03:42:54;;;;;;;25.97;14.58;;;;;;;10.43;72.84;99886.58;1761269;79;21261;-54
2021/09/11 03:45:21;;;;;;;20.65;14.20;;;;;;;10.43;72.74;99887.05;1758465;79;21378;-54
2021/09/11 03:47:49;;;;;;;20.27;13.90;;;;;;;10.41;72.75;99885.77;1755851;79;21282;-54
2021/09/11 03:50:15;;;;;;;22.15;12.80;;;;;;;10.42;72.86;99883.95;1759818;79;21520;-54
2021/09/11 03:52:42;;;;;;;19.75;12.82;;;;;;;10.42;72.98;99883.48;1764215;79;21768;-54
2021/09/11 03:55:09;;;;;;;20.88;12.78;;;;;;;10.45;73.09;99885.16;1760612;79;21605;-54
2021/09/11 03:57:35;;;;;;;20.57;13.13;;;;;;;10.47;73.28;99882.78;1761510;79;20915;-54
2021/09/11 04:00:04;;;;;;;20.85;13.62;;;;;;;10.51;73.44;99880.38;1763884;79;21075;-54
2021/09/11 04:02:32;;;;;;;17.60;13.55;;;;;;;10.54;73.50;99886.97;1763433;79;20931;-54
2021/09/11 04:04:58;;;;;;;17.32;13.10;;;;;;;10.58;73.64;99887.21;1763946;79;20930;-54
2021/09/11 04:07:25;;;;;;;19.80;13.45;;;;;;;10.62;73.70;99887.95;1761777;79;20958;-54
2021/09/11 04:09:51;;;;;;;23.83;16.12;;;;;;;10.63;73.75;99882.48;1760244;79;21007;-54
2021/09/11 04:12:19;;;;;;;18.00;12.55;;;;;;;10.64;73.77;99886.05;1765258;79;21048;-54
2021/09/11 04:14:45;;;;;;;20.68;13.35;;;;;;;10.66;73.88;99896.75;1761939;79;21315;-54
2021/09/11 04:17:12;;;;;;;23.75;13.38;;;;;;;10.68;73.99;99894.86;1755896;79;20914;-54
2021/09/11 04:19:38;;;;;;;16.62;10.90;;;;;;;10.71;74.04;99897.43;1759164;79;20942;-54
2021/09/11 04:22:06;;;;;;;20.35;11.88;;;;;;;10.73;74.12;99898.20;1755252;79;20900;-54
2021/09/11 04:24:33;;;;;;;16.62;11.80;;;;;;;10.76;74.35;99901.64;1756172;79;20998;-54
2021/09/11 04:27:00;;;;;;;18.00;12.47;;;;;;;10.83;74.57;99903.56;1754116;79;20875;-54
2021/09/11 04:29:26;;;;;;;14.28;12.23;;;;;;;10.89;74.73;99899.23;1752732;79;20923;-54
2021/09/11 04:31:52;;;;;;;23.67;14.00;;;;;;;10.95;74.79;99897.62;1755516;79;20971;-54
2021/09/11 04:34:20;;;;;;;22.93;13.20;;;;;;;11.04;74.88;99894.96;1761642;79;20943;-54
2021/09/11 04:36:46;;;;;;;20.65;13.55;;;;;;;11.14;75.03;99894.92;1753662;79;21082;-54
2021/09/11 04:39:14;;;;;;;21.35;14.15;;;;;;;11.31;75.23;99887.73;1751444;79;20990;-54
2021/09/11 04:41:43;;;;;;;20.08;13.53;;;;;;;11.54;75.22;99896.53;1749037;79;21118;-54
2021/09/11 04:44:09;;;;;;;14.93;10.95;;;;;;;11.76;74.99;99890.47;1750345;79;21658;-54
2021/09/11 04:46:37;;;;;;;23.15;12.98;;;;;;;11.95;74.62;99889.94;1750708;79;21120;-54
2021/09/11 04:49:04;;;;;;;17.32;11.73;;;;;;;12.08;74.30;99879.37;1753227;79;21175;-54
2021/09/11 04:51:30;;;;;;;17.30;12.85;;;;;;;12.19;74.15;99888.26;1753101;79;21077;-54
2021/09/11 04:53:57;;;;;;;18.95;13.28;;;;;;;12.26;73.97;99886.50;1749610;79;21022;-53
2021/09/11 04:56:24;;;;;;;21.15;13.62;;;;;;;12.31;73.78;99884.45;1750839;79;21767;-54
2021/09/11 04:58:50;;;;;;;16.65;12.85;;;;;;;12.36;73.78;99886.41;1753045;79;21109;-54
2021/09/11 05:01:17;;;;;;;19.23;13.83;;;;;;;12.45;73.93;99885.05;1754253;79;21088;-53
2021/09/11 05:03:44;;;;;;;22.22;12.85;;;;;;;12.53;74.07;99885.98;1748458;79;21073;-54
2021/09/11 05:06:11;;;;;;;17.25;11.97;;;;;;;12.59;74.22;99883.81;1754105;79;21072;-54
2021/09/11 05:08:37;;;;;;;19.10;11.95;;;;;;;12.67;74.27;99887.00;1758457;79;21053;-54
2021/09/11 05:11:04;;;;;;;19.55;12.35;;;;;;;12.75;74.31;99879.83;1758208;79;21141;-54
2021/09/11 05:13:30;;;;;;;16.95;11.75;;;;;;;12.85;74.38;99883.26;1753235;79;21147;-54
2021/09/11 05:15:57;;;;;;;16.95;12.47;;;;;;;12.97;74.56;99875.44;1750186;79;21061;-54
2021/09/11 05:18:25;;;;;;;18.82;12.90;;;;;;;13.08;74.69;99878.42;1758693;79;21296;-54
2021/09/11 05:20:54;;;;;;;22.15;15.08;;;;;;;13.20;74.99;99876.39;1757992;79;20926;-53
2021/09/11 05:23:20;;;;;;;17.95;14.13;;;;;;;13.31;75.19;99875.30;1763045;79;21041;-54
2021/09/11 05:25:48;;;;;;;13.93;11.78;;;;;;;13.43;75.40;99870.55;1757229;79;20962;-53
2021/09/11 05:28:14;;;;;;;16.80;11.97;;;;;;;13.54;75.61;99869.42;1756349;79;21061;-53
2021/09/11 05:30:41;;;;;;;20.20;13.10;;;;;;;13.69;75.78;99870.86;1758172;79;21053;-54
2021/09/11 05:33:07;;;;;;;17.10;14.05;;;;;;;13.82;76.00;99875.44;1759594;79;21042;-54
2021/09/11 05:35:34;;;;;;;21.33;13.13;;;;;;;13.95;76.28;99875.08;1762340;79;21057;-54
2021/09/11 05:38:01;;;;;;;26.00;14.13;;;;;;;14.08;76.53;99873.00;1756992;79;21143;-54
2021/09/11 05:40:28;;;;;;;20.88;14.35;;;;;;;14.21;76.85;99876.21;1759051;79;21090;-55
2021/09/11 05:42:54;;;;;;;23.45;15.15;;;;;;;14.34;76.95;99871.80;1759188;79;21093;-55
2021/09/11 05:45:20;;;;;;;20.97;16.50;;;;;;;14.48;76.88;99875.52;1761394;79;21586;-54
2021/09/11 05:47:46;;;;;;;24.57;18.30;;;;;;;14.59;76.81;99870.30;1760717;79;22441;-54
2021/09/11 05:50:13;;;;;;;21.68;17.82;;;;;;;14.70;76.86;99870.51;1761201;79;21133;-55
2021/09/11 05:52:39;;;;;;;27.55;18.65;;;;;;;14.84;76.96;99867.78;1733437;80;21110;-54
2021/09/11 05:55:07;;;;;;;23.77;18.30;;;;;;;15.10;76.49;99869.69;1761694;79;21062;-54
2021/09/11 05:57:33;;;;;;;26.35;18.30;;;;;;;15.10;76.49;99869.69;1706232;82;21584;-54
2021/09/11 06:00:00;;;;;;;30.35;21.48;;;;;;;15.26;76.23;99874.98;1700945;82;21061;-54
2021/09/11 06:02:26;;;;;;;23.77;20.40;;;;;;;15.41;75.45;99873.96;1702237;82;21491;-54
2021/09/11 06:04:54;;;;;;;25.82;21.93;;;;;;;15.56;74.95;99873.48;1692026;82;21115;-54
2021/09/11 06:07:21;;;;;;;30.40;22.90;;;;;;;15.71;74.39;99869.73;1702401;82;21082;-54
2021/09/11 06:09:48;;;;;;;29.18;20.37;;;;;;;15.85;73.88;99868.30;1717860;81;21189;-54
2021/09/11 06:12:16;;;;;;;29.25;21.35;;;;;;;16.03;73.43;99873.45;1713563;81;21113;-54
2021/09/11 06:14:42;;;;;;;32.50;20.75;;;;;;;16.16;72.89;99873.84;1711384;81;21143;-54
2021/09/11 06:17:09;;;;;;;36.85;20.60;;;;;;;16.30;72.08;99870.68;1717364;80;21392;-54
2021/09/11 06:19:37;;;;;;;27.35;20.52;;;;;;;16.43;71.53;99866.98;1716493;80;21053;-54
2021/09/11 06:22:04;;;;;;;28.90;21.27;;;;;;;16.56;71.01;99867.88;1709881;80;21100;-54
2021/09/11 06:24:31;;;;;;;28.17;18.77;;;;;;;16.70;70.25;99867.40;1724286;81;21480;-55
2021/09/11 06:26:58;;;;;;;25.40;21.12;;;;;;;16.82;69.55;99870.12;1723863;81;21089;-55
2021/09/11 06:29:26;;;;;;;22.65;19.05;;;;;;;16.94;68.51;99862.42;1759370;79;21024;-54
2021/09/11 06:31:52;;;;;;;38.25;22.85;;;;;;;17.07;67.83;99863.77;1760396;79;21028;-54
2021/09/11 06:34:18;;;;;;;25.65;21.33;;;;;;;17.20;67.01;99868.67;1760482;79;21068;-55
2021/09/11 06:36:44;;;;;;;25.08;18.85;;;;;;;17.33;66.35;99867.29;1760251;79;21530;-55
2021/09/11 06:39:11;;;;;;;22.40;18.05;;;;;;;17.45;65.89;99862.77;1759328;79;22343;-55
2021/09/11 06:41:37;;;;;;;26.97;20.45;;;;;;;17.56;65.54;99861.48;1760306;79;21630;-55
2021/09/11 06:44:04;;;;;;;22.67;19.57;;;;;;;17.68;65.45;99861.47;1749247;79;21089;-55
2021/09/11 06:46:30;;;;;;;29.00;18.42;;;;;;;17.79;65.26;99860.63;1755773;79;21161;-55
2021/09/11 06:48:57;;;;;;;30.12;19.92;;;;;;;17.89;65.01;99863.53;1752672;79;21101;-55
2021/09/11 06:51:23;;;;;;;25.12;18.57;;;;;;;17.99;64.62;99868.16;1754281;79;22353;-55
2021/09/11 06:53:50;;;;;;;24.20;16.70;;;;;;;18.10;64.27;99869.57;1753227;79;21079;-55
2021/09/11 06:56:16;;;;;;;19.48;14.90;;;;;;;18.22;63.47;99872.31;1757380;79;21035;-55
2021/09/11 06:58:42;;;;;;;21.30;17.00;;;;;;;18.32;63.04;99867.39;1750453;79;21077;-55
2021/09/11 07:01:09;;;;;;;23.83;16.35;;;;;;;18.43;62.76;99868.79;1753830;79;21122;-54
2021/09/11 07:03:35;;;;;;;23.80;17.42;;;;;;;18.53;63.05;99867.58;1758851;79;21181;-55
2021/09/11 07:06:03;;;;;;;28.32;19.20;;;;;;;18.65;62.41;99865.75;1757161;79;21022;-55
2021/09/11 07:08:32;;;;;;;22.52;16.05;;;;;;;18.76;62.24;99872.09;1750626;79;21677;-55
2021/09/11 07:11:01;;;;;;;19.65;15.03;;;;;;;18.87;62.09;99865.78;1749712;79;21568;-55
2021/09/11 07:13:28;;;;;;;30.68;17.60;;;;;;;18.99;61.86;99863.90;1748563;79;21068;-55
2021/09/11 07:15:54;;;;;;;33.70;17.70;;;;;;;19.10;61.68;99864.77;1753001;79;21472;-55
2021/09/11 07:18:21;;;;;;;29.72;17.27;;;;;;;19.18;60.55;99860.05;1756096;79;21334;-55
2021/09/11 07:20:47;;;;;;;20.45;14.15;;;;;;;19.27;59.94;99864.27;1758989;79;21498;-55
2021/09/11 07:23:15;;;;;;;48.38;18.70;;;;;;;19.38;59.91;99863.87;1699406;82;21215;-54
2021/09/11 07:25:42;;;;;;;52.10;19.02;;;;;;;19.46;59.78;99854.06;1749966;79;21042;-55
2021/09/11 07:28:08;;;;;;;36.98;15.80;;;;;;;19.55;59.26;99864.74;1755194;79;21070;-54
2021/09/11 07:30:35;;;;;;;37.58;15.90;;;;;;;19.63;58.65;99863.59;1749063;79;21381;-55
2021/09/11 07:33:02;;;;;;;23.85;11.40;;;;;;;19.72;58.38;99857.86;1750541;79;21101;-56
2021/09/11 07:35:29;;;;;;;28.92;11.40;;;;;;;19.79;57.67;99857.22;1750333;79;21269;-55
2021/09/11 07:37:55;;;;;;;33.90;11.22;;;;;;;19.87;57.06;99854.70;1748471;79;21507;-56
2021/09/11 07:40:22;;;;;;;21.77;8.95;;;;;;;19.96;56.74;99858.52;1749854;79;21100;-55
2021/09/11 07:42:48;;;;;;;20.77;9.00;;;;;;;20.05;56.53;99864.56;1746189;79;22397;-55
2021/09/11 07:45:16;;;;;;;13.28;5.22;;;;;;;20.13;56.41;99859.30;1749943;79;21184;-55
2021/09/11 07:47:44;;;;;;;4.65;3.02;;;;;;;20.22;55.31;99860.38;1749955;79;21077;-55
2021/09/11 07:50:10;;;;;;;9.75;3.33;;;;;;;20.31;53.75;99869.15;1749320;79;21405;-56
2021/09/11 07:52:37;;;;;;;16.07;4.22;;;;;;;20.40;52.63;99857.45;1752111;79;22306;-55
2021/09/11 07:55:07;;;;;;;5.15;4.00;;;;;;;20.50;51.93;99860.25;1753124;79;20958;-55
2021/09/11 07:57:34;;;;;;;7.42;5.37;;;;;;;20.60;51.82;99862.52;1756575;79;21345;-55
2021/09/11 08:00:00;;;;;;;17.70;6.78;;;;;;;20.69;51.62;99855.74;1761060;79;21650;-54
2021/09/11 08:02:26;;;;;;;9.58;5.47;;;;;;;20.78;51.71;99854.92;1751053;79;21457;-55
2021/09/11 08:04:54;;;;;;;14.87;7.35;;;;;;;20.89;51.67;99856.72;1752722;79;22164;-55
2021/09/11 08:07:21;;;;;;;12.47;7.05;;;;;;;20.99;51.36;99852.66;1751050;79;21468;-56
2021/09/11 08:09:47;;;;;;;18.82;9.45;;;;;;;21.08;51.38;99850.47;1754644;79;21599;-55
2021/09/11 08:12:15;;;;;;;21.00;10.28;;;;;;;21.14;51.83;99851.27;1755069;79;21678;-56
2021/09/11 08:14:42;;;;;;;17.27;9.45;;;;;;;21.20;52.18;99844.41;1749333;79;21649;-55
2021/09/11 08:17:08;;;;;;;19.75;10.68;;;;;;;21.26;52.29;99851.58;1752199;79;21594;-55
2021/09/11 08:19:36;;;;;;;23.52;11.08;;;;;;;21.33;52.44;99843.66;1753560;79;21508;-55
2021/09/11 08:22:03;;;;;;;24.85;11.33;;;;;;;21.42;52.24;99847.80;1754643;79;21093;-55
2021/09/11 08:24:29;;;;;;;27.13;12.73;;;;;;;21.49;52.05;99843.48;1754284;79;21034;-55
2021/09/11 08:26:55;;;;;;;23.55;12.15;;;;;;;21.59;52.38;99840.77;1750779;79;21352;-55
2021/09/11 08:29:22;;;;;;;30.27;12.15;;;;;;;21.66;52.48;99834.22;1752922;79;22725;-55
2021/09/11 08:31:50;;;;;;;20.55;9.55;;;;;;;21.71;52.50;99835.51;1756557;79;21086;-55
2021/09/11 08:34:16;;;;;;;22.00;11.80;;;;;;;21.78;52.36;99836.66;1758027;79;21034;-56
2021/09/11 08:36:43;;;;;;;25.77;10.82;;;;;;;21.84;52.35;99827.89;1748899;79;21144;-55
2021/09/11 08:39:11;;;;;;;21.95;10.53;;;;;;;21.92;51.57;99830.41;1754746;79;21058;-55
2021/09/11 08:41:39;;;;;;;23.25;10.43;;;;;;;21.97;51.03;99830.83;1758527;79;21125;-55
2021/09/11 08:44:05;;;;;;;19.20;9.20;;;;;;;21.99;50.81;99826.98;1698027;82;22482;-54
2021/09/11 08:46:32;;;;;;;24.45;10.82;;;;;;;22.01;50.18;99831.82;1759129;79;21524;-55
2021/09/11 08:48:59;;;;;;;18.73;9.78;;;;;;;22.04;49.96;99820.55;1753538;79;21486;-55
2021/09/11 08:51:25;;;;;;;15.00;8.80;;;;;;;22.08;49.71;99821.13;1752890;79;22367;-55
2021/09/11 08:53:51;;;;;;;12.60;5.97;;;;;;;22.09;49.98;99813.27;1694748;82;21428;-55
2021/09/11 08:56:18;;;;;;;11.48;6.03;;;;;;;22.14;49.69;99816.43;1749185;79;21963;-55
2021/09/11 08:58:45;;;;;;;17.07;8.58;;;;;;;22.19;48.03;99810.02;1754866;79;20962;-55
2021/09/11 09:01:11;;;;;;;21.70;9.05;;;;;;;22.22;48.02;99813.31;1761302;79;21101;-56
2021/09/11 09:03:43;;;;;;;21.02;9.63;;;;;;;22.26;48.73;99815.27;1761948;79;21093;-56
2021/09/11 09:06:25;;;;;;;17.90;9.35;;;;;;;22.28;48.79;99807.77;1698967;82;21077;-56
2021/09/11 09:08:55;;;;;;;20.95;11.08;;;;;;;22.31;48.44;99810.20;1756944;79;21056;-56
2021/09/11 09:11:28;;;;;;;22.32;10.05;;;;;;;22.32;48.55;99806.45;1757948;79;21021;-56
2021/09/11 09:14:07;;;;;;;25.27;10.38;;;;;;;22.35;49.64;99799.31;1761763;79;21173;-55
2021/09/11 09:16:47;;;;;;;23.45;9.55;;;;;;;22.42;48.83;99794.09;1755446;79;21132;-56
2021/09/11 09:19:21;;;;;;;20.15;9.03;;;;;;;22.45;48.67;99801.53;1753295;79;21552;-56
2021/09/11 09:21:51;;;;;;;22.75;7.72;;;;;;;22.49;48.06;99797.97;1750562;79;21118;-56
2021/09/11 09:24:28;;;;;;;17.60;8.80;;;;;;;22.49;48.27;99797.46;1755728;79;21022;-56
2021/09/11 09:27:07;;;;;;;16.75;8.33;;;;;;;22.48;48.75;99788.00;1754950;79;21383;-56
2021/09/11 09:29:37;;;;;;;14.00;8.15;;;;;;;22.45;48.92;99801.53;1752745;79;20983;-56
2021/09/11 09:32:05;;;;;;;16.00;7.97;;;;;;;22.39;48.35;99791.12;1755533;79;21117;-56
2021/09/11 09:34:37;;;;;;;15.60;8.35;;;;;;;22.33;48.24;99797.22;1758798;79;21026;-57
2021/09/11 09:37:07;;;;;;;10.82;6.65;;;;;;;22.28;48.39;99797.31;1752692;79;21721;-56
2021/09/11 09:39:48;;;;;;;12.58;6.55;;;;;;;22.20;48.28;99792.03;1754874;79;20864;-56
2021/09/11 09:42:16;;;;;;;11.28;7.17;;;;;;;22.15;48.36;99795.73;1755307;79;20931;-56
2021/09/11 09:44:47;;;;;;;12.90;7.75;;;;;;;22.10;48.58;99797.19;1754974;79;21069;-56
2021/09/11 09:47:15;;;;;;;13.45;7.10;;;;;;;22.05;49.27;99796.23;1758790;79;21452;-56
2021/09/11 09:49:41;;;;;;;11.50;7.20;;;;;;;22.02;48.66;99793.81;1761290;79;20909;-56
2021/09/11 09:52:08;;;;;;;10.72;7.67;;;;;;;22.03;48.59;99792.77;1754513;79;21044;-56
2021/09/11 09:54:34;;;;;;;10.72;6.75;;;;;;;22.03;48.49;99791.94;1758047;79;20899;-56
2021/09/11 09:57:01;;;;;;;9.90;6.62;;;;;;;22.06;48.49;99790.25;1752789;79;21339;-56
2021/09/11 09:59:27;;;;;;;11.78;8.80;;;;;;;22.11;49.01;99790.70;1753826;79;20950;-56
2021/09/11 10:01:53;;;;;;;14.78;6.92;;;;;;;22.16;47.85;99782.38;1755442;79;20929;-57
2021/09/11 10:04:21;;;;;;;12.18;7.17;;;;;;;22.22;47.87;99785.90;1758067;79;21032;-57
2021/09/11 10:06:54;;;;;;;9.60;6.30;;;;;;;22.31;47.92;99784.66;1757007;79;20973;-56
2021/09/11 10:09:27;;;;;;;10.90;6.95;;;;;;;22.39;47.98;99778.79;1752257;79;21472;-57
2021/09/11 10:11:55;;;;;;;8.03;7.12;;;;;;;22.51;47.93;99776.75;1753110;79;21240;-56
2021/09/11 10:14:34;;;;;;;12.20;6.30;;;;;;;22.61;48.25;99763.36;1762796;79;21461;-57
2021/09/11 10:17:04;;;;;;;10.50;7.03;;;;;;;22.72;48.52;99763.66;1755031;79;21472;-57
2021/09/11 10:19:42;;;;;;;7.80;6.25;;;;;;;22.85;47.51;99768.84;1751225;79;21015;-56
2021/09/11 10:22:24;;;;;;;9.78;7.55;;;;;;;22.92;46.83;99770.83;1691332;82;22136;-57
2021/09/11 10:25:02;;;;;;;10.10;6.50;;;;;;;23.00;47.10;99773.67;1753200;79;21022;-56
2021/09/11 10:27:39;;;;;;;11.53;7.28;;;;;;;23.05;46.03;99772.37;1752511;79;21074;-56
2021/09/11 10:30:14;;;;;;;10.68;6.97;;;;;;;23.08;45.54;99767.42;1753020;79;21461;-56
2021/09/11 10:32:50;;;;;;;14.68;7.30;;;;;;;23.11;45.59;99763.52;1751975;79;21065;-56
2021/09/11 10:35:21;;;;;;;9.40;6.70;;;;;;;23.13;45.00;99765.09;1749488;79;21186;-56
2021/09/11 10:37:52;;;;;;;13.28;6.55;;;;;;;23.17;44.52;99756.02;1754493;79;21430;-56
2021/09/11 10:40:30;;;;;;;11.22;7.47;;;;;;;23.16;44.03;99758.41;1753612;79;20979;-57
2021/09/11 10:43:21;;;;;;;12.60;7.35;;;;;;;23.17;44.23;99755.52;1759561;79;20929;-57
2021/09/11 10:46:01;;;;;;;8.78;5.47;;;;;;;23.20;43.66;99751.61;1757935;79;20998;-57
2021/09/11 10:51:35;;;;;;;10.78;7.83;;;;;;;23.33;44.33;99746.59;1770722;78;28645;-54
2021/09/11 10:54:15;;;;;;;16.00;7.05;;;;;;;23.33;43.73;99747.45;1746028;80;20983;-56
2021/09/11 10:57:01;;;;;;;12.47;5.78;;;;;;;23.38;43.65;99749.25;1741395;80;21804;-56
2021/09/11 10:59:37;;;;;;;8.43;7.67;;;;;;;23.44;43.46;99742.77;1725549;80;20954;-56
2021/09/11 11:02:28;;;;;;;7.67;6.87;;;;;;;23.47;42.86;99739.21;1747256;80;20919;-55
2021/09/11 11:04:59;;;;;;;7.75;6.95;;;;;;;23.48;42.20;99742.28;1714058;81;20878;-56
2021/09/11 11:07:30;;;;;;;9.18;6.00;;;;;;;23.46;42.38;99733.86;1707666;81;20985;-56
2021/09/11 11:10:07;;;;;;;8.43;6.33;;;;;;;23.46;42.77;99737.48;1707016;81;20941;-56
2021/09/11 11:12:37;;;;;;;9.68;6.05;;;;;;;23.48;42.39;99734.04;1694130;82;20999;-56
2021/09/11 11:15:09;;;;;;;8.68;6.10;;;;;;;23.49;42.21;99730.81;1694085;82;20903;-55
2021/09/11 11:17:40;;;;;;;9.88;6.15;;;;;;;23.51;41.50;99729.66;1699726;82;20939;-56
2021/09/11 11:20:07;;;;;;;8.23;6.30;;;;;;;23.51;41.67;99735.66;1687178;83;20937;-56
2021/09/11 11:22:38;;;;;;;8.18;6.03;;;;;;;23.54;42.37;99721.62;1692648;82;21117;-56
2021/09/11 11:25:06;;;;;;;12.35;5.55;;;;;;;23.56;42.58;99720.95;1687844;82;21140;-56
2021/09/11 11:27:33;;;;;;;7.67;5.78;;;;;;;23.58;41.68;99711.52;1701128;82;21351;-56
2021/09/11 11:30:00;;;;;;;8.00;6.85;;;;;;;23.59;41.65;99712.37;1701476;82;21135;-56